sensor_id;sensor_type;location;lat;lon;timestamp;pressure;altitude;pressure_sealevel;temperature;humidity
11448;BME280;43755;49.736;8.734;2023-05-18T00:01:00;98645.03;;;5.38;100.00
11448;BME280;43755;49.736;8.734;2023-05-18T00:03:02;98653.84;;;5.30;100.00
11448;BME280;43755;49.736;8.734;2023-05-18T00:05:05;98651.34;;;5.21;100.00
11448;BME280;43755;49.736;8.734;2023-05-18T00:07:07;98651.41;;;5.15;100.00
11448;BME280;43755;49.736;8.734;2023-05-18T00:09:09;98655.72;;;5.21;100.00
11448;BME280;43755;49.736;8.734;2023-05-18T00:11:10;98649.59;;;5.22;100.00
11448;BME280;43755;49.736;8.734;2023-05-18T00:13:12;98651.41;;;5.15;100.00
11448;BME280;43755;49.736;8.734;2023-05-18T00:15:13;98646.22;;;5.09;100.00
11448;BME280;43755;49.736;8.734;2023-05-18T00:17:16;98650.69;;;5.01;100.00
11448;BME280;43755;49.736;8.734;2023-05-18T00:19:20;98653.34;;;4.97;100.00
11448;BME280;43755;49.736;8.734;2023-05-18T00:21:21;98656.97;;;4.88;100.00
11448;BME280;43755;49.736;8.734;2023-05-18T00:23:29;98651.72;;;4.85;100.00
11448;BME280;43755;49.736;8.734;2023-05-18T00:25:32;98653.41;;;4.93;100.00
11448;BME280;43755;49.736;8.734;2023-05-18T00:27:33;98645.56;;;4.90;100.00
11448;BME280;43755;49.736;8.734;2023-05-18T00:29:34;98648.16;;;4.93;100.00
11448;BME280;43755;49.736;8.734;2023-05-18T00:31:37;98656.03;;;4.90;100.00
11448;BME280;43755;49.736;8.734;2023-05-18T00:33:40;98648.16;;;4.92;100.00
11448;BME280;43755;49.736;8.734;2023-05-18T00:35:41;98649.09;;;4.88;100.00
11448;BME280;43755;49.736;8.734;2023-05-18T00:37:42;98643.03;;;4.83;100.00
11448;BME280;43755;49.736;8.734;2023-05-18T00:39:44;98640.41;;;4.80;100.00
11448;BME280;43755;49.736;8.734;2023-05-18T00:41:45;98643.03;;;4.80;100.00
11448;BME280;43755;49.736;8.734;2023-05-18T00:43:47;98642.19;;;4.78;100.00
11448;BME280;43755;49.736;8.734;2023-05-18T00:45:48;98646.59;;;4.74;100.00
11448;BME280;43755;49.736;8.734;2023-05-18T00:47:49;98645.66;;;4.78;100.00
11448;BME280;43755;49.736;8.734;2023-05-18T00:49:52;98643.88;;;4.83;100.00
11448;BME280;43755;49.736;8.734;2023-05-18T00:51:54;98643.09;;;4.77;100.00
11448;BME280;43755;49.736;8.734;2023-05-18T00:53:58;98633.53;;;4.67;100.00
11448;BME280;43755;49.736;8.734;2023-05-18T00:56:01;98640.63;;;4.56;100.00
11448;BME280;43755;49.736;8.734;2023-05-18T00:58:02;98640.69;;;4.51;100.00
11448;BME280;43755;49.736;8.734;2023-05-18T01:00:05;98641.63;;;4.45;100.00
11448;BME280;43755;49.736;8.734;2023-05-18T01:02:09;98634.66;;;4.40;100.00
11448;BME280;43755;49.736;8.734;2023-05-18T01:04:11;98631.19;;;4.36;100.00
11448;BME280;43755;49.736;8.734;2023-05-18T01:06:15;98637.34;;;4.35;100.00
11448;BME280;43755;49.736;8.734;2023-05-18T01:08:17;98629.50;;;4.31;100.00
11448;BME280;43755;49.736;8.734;2023-05-18T01:10:19;98629.53;;;4.29;100.00
11448;BME280;43755;49.736;8.734;2023-05-18T01:12:26;98629.47;;;4.35;100.00
11448;BME280;43755;49.736;8.734;2023-05-18T01:14:32;98633.84;;;4.35;100.00
11448;BME280;43755;49.736;8.734;2023-05-18T01:16:40;98632.00;;;4.47;100.00
11448;BME280;43755;49.736;8.734;2023-05-18T01:18:46;98640.75;;;4.43;100.00
11448;BME280;43755;49.736;8.734;2023-05-18T01:20:58;98635.50;;;4.46;100.00
11448;BME280;43755;49.736;8.734;2023-05-18T01:23:28;98637.25;;;4.47;100.00
11448;BME280;43755;49.736;8.734;2023-05-18T01:25:45;98630.25;;;4.42;100.00
11448;BME280;43755;49.736;8.734;2023-05-18T01:27:49;98633.84;;;4.35;100.00
11448;BME280;43755;49.736;8.734;2023-05-18T01:29:54;98632.97;;;4.34;100.00
11448;BME280;43755;49.736;8.734;2023-05-18T01:31:56;98629.44;;;4.37;100.00
11448;BME280;43755;49.736;8.734;2023-05-18T01:33:57;98633.75;;;4.45;100.00
11448;BME280;43755;49.736;8.734;2023-05-18T01:35:59;98631.09;;;4.51;100.00
11448;BME280;43755;49.736;8.734;2023-05-18T01:38:00;98625.84;;;4.51;100.00
11448;BME280;43755;49.736;8.734;2023-05-18T01:40:02;98628.38;;;4.61;100.00
11448;BME280;43755;49.736;8.734;2023-05-18T01:42:07;98626.59;;;4.64;100.00
11448;BME280;43755;49.736;8.734;2023-05-18T01:44:14;98629.22;;;4.63;100.00
11448;BME280;43755;49.736;8.734;2023-05-18T01:46:25;98627.53;;;4.59;100.00
11448;BME280;43755;49.736;8.734;2023-05-18T01:48:31;98628.50;;;4.47;100.00
11448;BME280;43755;49.736;8.734;2023-05-18T01:50:40;98632.09;;;4.32;100.00
11448;BME280;43755;49.736;8.734;2023-05-18T01:52:45;98623.47;;;4.21;100.00
11448;BME280;43755;49.736;8.734;2023-05-18T01:54:49;98628.78;;;4.12;100.00
11448;BME280;43755;49.736;8.734;2023-05-18T01:56:52;98628.84;;;4.03;100.00
11448;BME280;43755;49.736;8.734;2023-05-18T01:58:56;98617.50;;;4.02;100.00
11448;BME280;43755;49.736;8.734;2023-05-18T02:00:59;98623.59;;;4.03;100.00
11448;BME280;43755;49.736;8.734;2023-05-18T02:03:01;98618.31;;;4.07;100.00
11448;BME280;43755;49.736;8.734;2023-05-18T02:05:03;98622.69;;;4.08;100.00
11448;BME280;43755;49.736;8.734;2023-05-18T02:07:06;98621.81;;;4.11;100.00
11448;BME280;43755;49.736;8.734;2023-05-18T02:09:08;98619.19;;;4.09;100.00
11448;BME280;43755;49.736;8.734;2023-05-18T02:11:09;98614.84;;;4.07;100.00
11448;BME280;43755;49.736;8.734;2023-05-18T02:13:11;98613.13;;;4.06;100.00
11448;BME280;43755;49.736;8.734;2023-05-18T02:15:12;98614.03;;;3.99;100.00
11448;BME280;43755;49.736;8.734;2023-05-18T02:17:15;98619.28;;;3.96;100.00
11448;BME280;43755;49.736;8.734;2023-05-18T02:19:16;98619.34;;;3.88;100.00
11448;BME280;43755;49.736;8.734;2023-05-18T02:21:18;98617.56;;;3.90;100.00
11448;BME280;43755;49.736;8.734;2023-05-18T02:23:19;98613.25;;;3.83;100.00
11448;BME280;43755;49.736;8.734;2023-05-18T02:25:21;98622.00;;;3.79;100.00
11448;BME280;43755;49.736;8.734;2023-05-18T02:27:22;98618.56;;;3.72;100.00
11448;BME280;43755;49.736;8.734;2023-05-18T02:29:24;98611.63;;;3.62;100.00
11448;BME280;43755;49.736;8.734;2023-05-18T02:31:25;98614.25;;;3.62;100.00
11448;BME280;43755;49.736;8.734;2023-05-18T02:33:29;98611.63;;;3.59;100.00
11448;BME280;43755;49.736;8.734;2023-05-18T02:35:38;98616.88;;;3.59;100.00
11448;BME280;43755;49.736;8.734;2023-05-18T02:37:40;98604.69;;;3.58;100.00
11448;BME280;43755;49.736;8.734;2023-05-18T02:39:43;98609.06;;;3.56;100.00
11448;BME280;43755;49.736;8.734;2023-05-18T02:41:44;98609.09;;;3.53;100.00
11448;BME280;43755;49.736;8.734;2023-05-18T02:43:46;98614.28;;;3.55;100.00
11448;BME280;43755;49.736;8.734;2023-05-18T02:45:47;98609.94;;;3.57;100.00
11448;BME280;43755;49.736;8.734;2023-05-18T02:47:48;98609.91;;;3.63;100.00
11448;BME280;43755;49.736;8.734;2023-05-18T02:49:51;98610.66;;;3.82;100.00
11448;BME280;43755;49.736;8.734;2023-05-18T02:51:52;98615.03;;;3.80;100.00
11448;BME280;43755;49.736;8.734;2023-05-18T02:53:54;98618.59;;;3.68;100.00
11448;BME280;43755;49.736;8.734;2023-05-18T02:55:56;98608.97;;;3.75;100.00
11448;BME280;43755;49.736;8.734;2023-05-18T02:57:57;98608.03;;;3.80;100.00
11448;BME280;43755;49.736;8.734;2023-05-18T02:59:59;98607.22;;;3.77;100.00
11448;BME280;43755;49.736;8.734;2023-05-18T03:02:01;98608.09;;;3.74;100.00
11448;BME280;43755;49.736;8.734;2023-05-18T03:04:02;98607.22;;;3.74;100.00
11448;BME280;43755;49.736;8.734;2023-05-18T03:06:05;98608.97;;;3.71;100.00
11448;BME280;43755;49.736;8.734;2023-05-18T03:08:07;98602.00;;;3.67;100.00
11448;BME280;43755;49.736;8.734;2023-05-18T03:10:09;98607.28;;;3.63;100.00
11448;BME280;43755;49.736;8.734;2023-05-18T03:12:11;98611.63;;;3.59;100.00
11448;BME280;43755;49.736;8.734;2023-05-18T03:14:12;98606.47;;;3.53;100.00
11448;BME280;43755;49.736;8.734;2023-05-18T03:16:13;98606.50;;;3.47;100.00
11448;BME280;43755;49.736;8.734;2023-05-18T03:18:15;98609.13;;;3.44;100.00
11448;BME280;43755;49.736;8.734;2023-05-18T03:20:17;98610.00;;;3.37;100.00
11448;BME280;43755;49.736;8.734;2023-05-18T03:22:20;98614.38;;;3.37;100.00
11448;BME280;43755;49.736;8.734;2023-05-18T03:24:21;98611.78;;;3.30;100.00
11448;BME280;43755;49.736;8.734;2023-05-18T03:26:25;98618.78;;;3.27;100.00
11448;BME280;43755;49.736;8.734;2023-05-18T03:28:29;98619.69;;;3.23;100.00
11448;BME280;43755;49.736;8.734;2023-05-18T03:30:31;98610.09;;;3.20;100.00
11448;BME280;43755;49.736;8.734;2023-05-18T03:32:33;98612.72;;;3.19;100.00
11448;BME280;43755;49.736;8.734;2023-05-18T03:34:36;98616.19;;;3.22;100.00
11448;BME280;43755;49.736;8.734;2023-05-18T03:36:38;98617.94;;;3.20;100.00
11448;BME280;43755;49.736;8.734;2023-05-18T03:38:40;98607.47;;;3.19;100.00
11448;BME280;43755;49.736;8.734;2023-05-18T03:40:45;98619.69;;;3.17;100.00
11448;BME280;43755;49.736;8.734;2023-05-18T03:42:46;98618.84;;;3.12;100.00
11448;BME280;43755;49.736;8.734;2023-05-18T03:44:47;98617.97;;;3.10;100.00
11448;BME280;43755;49.736;8.734;2023-05-18T03:46:49;98624.09;;;3.10;100.00
11448;BME280;43755;49.736;8.734;2023-05-18T03:48:51;98622.34;;;3.08;100.00
11448;BME280;43755;49.736;8.734;2023-05-18T03:50:53;98623.22;;;3.10;100.00
11448;BME280;43755;49.736;8.734;2023-05-18T03:52:54;98624.94;;;3.11;100.00
11448;BME280;43755;49.736;8.734;2023-05-18T03:54:57;98620.59;;;3.11;100.00
11448;BME280;43755;49.736;8.734;2023-05-18T03:56:59;98620.63;;;3.04;100.00
11448;BME280;43755;49.736;8.734;2023-05-18T03:59:01;98621.47;;;3.03;100.00
11448;BME280;43755;49.736;8.734;2023-05-18T04:01:03;98628.44;;;3.08;100.00
11448;BME280;43755;49.736;8.734;2023-05-18T04:03:04;98620.59;;;3.10;100.00
11448;BME280;43755;49.736;8.734;2023-05-18T04:05:06;98632.78;;;3.08;100.00
11448;BME280;43755;49.736;8.734;2023-05-18T04:07:09;98628.44;;;3.11;100.00
11448;BME280;43755;49.736;8.734;2023-05-18T04:09:10;98630.16;;;3.14;100.00
11448;BME280;43755;49.736;8.734;2023-05-18T04:11:15;98626.69;;;3.15;100.00
11448;BME280;43755;49.736;8.734;2023-05-18T04:13:16;98622.31;;;3.17;100.00
11448;BME280;43755;49.736;8.734;2023-05-18T04:15:18;98624.03;;;3.19;100.00
11448;BME280;43755;49.736;8.734;2023-05-18T04:17:19;98628.41;;;3.23;100.00
11448;BME280;43755;49.736;8.734;2023-05-18T04:19:22;98629.25;;;3.28;100.00
11448;BME280;43755;49.736;8.734;2023-05-18T04:21:23;98629.22;;;3.35;100.00
11448;BME280;43755;49.736;8.734;2023-05-18T04:23:24;98633.56;;;3.37;100.00
11448;BME280;43755;49.736;8.734;2023-05-18T04:25:27;98635.31;;;3.32;100.00
11448;BME280;43755;49.736;8.734;2023-05-18T04:27:30;98640.53;;;3.38;100.00
11448;BME280;43755;49.736;8.734;2023-05-18T04:29:32;98641.41;;;3.40;100.00
11448;BME280;43755;49.736;8.734;2023-05-18T04:31:33;98645.72;;;3.49;100.00
11448;BME280;43755;49.736;8.734;2023-05-18T04:33:35;98635.19;;;3.61;100.00
11448;BME280;43755;49.736;8.734;2023-05-18T04:35:37;98647.38;;;3.68;100.00
11448;BME280;43755;49.736;8.734;2023-05-18T04:37:39;98642.91;;;3.84;100.00
11448;BME280;43755;49.736;8.734;2023-05-18T04:39:40;98649.88;;;3.88;100.00
11448;BME280;43755;49.736;8.734;2023-05-18T04:41:42;98650.69;;;3.99;100.00
11448;BME280;43755;49.736;8.734;2023-05-18T04:43:46;98649.69;;;4.15;100.00
11448;BME280;43755;49.736;8.734;2023-05-18T04:45:49;98646.06;;;4.31;100.00
11448;BME280;43755;49.736;8.734;2023-05-18T04:47:50;98648.22;;;4.84;100.00
11448;BME280;43755;49.736;8.734;2023-05-18T04:49:53;98640.66;;;5.38;100.00
11448;BME280;43755;49.736;8.734;2023-05-18T04:51:55;98642.31;;;6.12;100.00
11448;BME280;43755;49.736;8.734;2023-05-18T04:53:58;98645.53;;;6.83;100.00
11448;BME280;43755;49.736;8.734;2023-05-18T04:56:00;98643.34;;;7.53;100.00
11448;BME280;43755;49.736;8.734;2023-05-18T04:58:01;98644.22;;;7.52;100.00
11448;BME280;43755;49.736;8.734;2023-05-18T05:00:06;98654.69;;;8.36;100.00
11448;BME280;43755;49.736;8.734;2023-05-18T05:02:08;98653.03;;;8.31;98.51
11448;BME280;43755;49.736;8.734;2023-05-18T05:04:11;98655.56;;;9.06;96.97
11448;BME280;43755;49.736;8.734;2023-05-18T05:06:13;98660.53;;;8.49;93.94
11448;BME280;43755;49.736;8.734;2023-05-18T05:08:14;98657.53;;;7.87;99.39
11448;BME280;43755;49.736;8.734;2023-05-18T05:10:16;98662.59;;;7.10;100.00
11448;BME280;43755;49.736;8.734;2023-05-18T05:12:18;98664.28;;;6.65;100.00
11448;BME280;43755;49.736;8.734;2023-05-18T05:14:19;98669.22;;;6.30;100.00
11448;BME280;43755;49.736;8.734;2023-05-18T05:16:22;98668.53;;;6.15;100.00
11448;BME280;43755;49.736;8.734;2023-05-18T05:18:23;98673.22;;;5.94;100.00
11448;BME280;43755;49.736;8.734;2023-05-18T05:20:25;98674.31;;;5.74;100.00
11448;BME280;43755;49.736;8.734;2023-05-18T05:22:26;98669.22;;;5.65;100.00
11448;BME280;43755;49.736;8.734;2023-05-18T05:24:27;98662.88;;;5.82;100.00
11448;BME280;43755;49.736;8.734;2023-05-18T05:26:29;98657.41;;;5.98;100.00
11448;BME280;43755;49.736;8.734;2023-05-18T05:28:30;98662.81;;;5.88;100.00
11448;BME280;43755;49.736;8.734;2023-05-18T05:30:32;98654.28;;;5.69;100.00
11448;BME280;43755;49.736;8.734;2023-05-18T05:32:35;98660.31;;;5.74;100.00
11448;BME280;43755;49.736;8.734;2023-05-18T05:34:36;98660.50;;;5.60;100.00
11448;BME280;43755;49.736;8.734;2023-05-18T05:36:37;98654.34;;;5.63;100.00
11448;BME280;43755;49.736;8.734;2023-05-18T05:38:39;98665.00;;;5.51;100.00
11448;BME280;43755;49.736;8.734;2023-05-18T05:40:41;98657.06;;;5.55;100.00
11448;BME280;43755;49.736;8.734;2023-05-18T05:42:42;98674.56;;;5.56;100.00
11448;BME280;43755;49.736;8.734;2023-05-18T05:44:44;98662.38;;;5.52;100.00
11448;BME280;43755;49.736;8.734;2023-05-18T05:46:45;98662.94;;;5.77;100.00
11448;BME280;43755;49.736;8.734;2023-05-18T05:48:48;98665.47;;;5.82;100.00
11448;BME280;43755;49.736;8.734;2023-05-18T05:50:49;98668.94;;;5.85;100.00
11448;BME280;43755;49.736;8.734;2023-05-18T05:52:51;98669.88;;;5.78;100.00
11448;BME280;43755;49.736;8.734;2023-05-18T05:54:52;98677.75;;;5.78;100.00
11448;BME280;43755;49.736;8.734;2023-05-18T05:56:53;98674.09;;;5.94;100.00
11448;BME280;43755;49.736;8.734;2023-05-18T05:58:55;98669.66;;;5.99;100.00
11448;BME280;43755;49.736;8.734;2023-05-18T06:00:56;98671.44;;;5.97;100.00
11448;BME280;43755;49.736;8.734;2023-05-18T06:02:57;98673.72;;;6.18;100.00
11448;BME280;43755;49.736;8.734;2023-05-18T06:05:00;98669.47;;;6.11;100.00
11448;BME280;43755;49.736;8.734;2023-05-18T06:07:02;98674.75;;;6.11;100.00
11448;BME280;43755;49.736;8.734;2023-05-18T06:09:03;98676.59;;;6.03;100.00
11448;BME280;43755;49.736;8.734;2023-05-18T06:11:05;98673.81;;;6.14;100.00
11448;BME280;43755;49.736;8.734;2023-05-18T06:13:06;98672.09;;;6.11;100.00
11448;BME280;43755;49.736;8.734;2023-05-18T06:15:08;98671.16;;;6.17;100.00
11448;BME280;43755;49.736;8.734;2023-05-18T06:17:10;98667.59;;;6.20;100.00
11448;BME280;43755;49.736;8.734;2023-05-18T06:19:11;98664.22;;;6.11;100.00
11448;BME280;43755;49.736;8.734;2023-05-18T06:21:14;98666.81;;;6.13;100.00
11448;BME280;43755;49.736;8.734;2023-05-18T06:23:16;98673.53;;;6.34;100.00
11448;BME280;43755;49.736;8.734;2023-05-18T06:25:21;98673.53;;;6.34;100.00
11448;BME280;43755;49.736;8.734;2023-05-18T06:27:23;98679.53;;;6.42;100.00
11448;BME280;43755;49.736;8.734;2023-05-18T06:29:24;98668.06;;;6.47;100.00
11448;BME280;43755;49.736;8.734;2023-05-18T06:31:26;98676.66;;;6.57;100.00
11448;BME280;43755;49.736;8.734;2023-05-18T06:33:27;98678.34;;;6.61;100.00
11448;BME280;43755;49.736;8.734;2023-05-18T06:35:29;98679.00;;;6.75;100.00
11448;BME280;43755;49.736;8.734;2023-05-18T06:37:32;98678.81;;;6.84;100.00
11448;BME280;43755;49.736;8.734;2023-05-18T06:39:33;98676.16;;;6.87;100.00
11448;BME280;43755;49.736;8.734;2023-05-18T06:41:35;98682.22;;;6.91;100.00
11448;BME280;43755;49.736;8.734;2023-05-18T06:43:36;98685.56;;;7.01;100.00
11448;BME280;43755;49.736;8.734;2023-05-18T06:45:38;98687.25;;;7.05;100.00
11448;BME280;43755;49.736;8.734;2023-05-18T06:47:39;98681.66;;;7.23;100.00
11448;BME280;43755;49.736;8.734;2023-05-18T06:49:41;98681.44;;;7.33;100.00
11448;BME280;43755;49.736;8.734;2023-05-18T06:51:42;98692.63;;;7.45;100.00
11448;BME280;43755;49.736;8.734;2023-05-18T06:53:46;98687.31;;;7.48;100.00
11448;BME280;43755;49.736;8.734;2023-05-18T06:55:47;98689.66;;;7.61;100.00
11448;BME280;43755;49.736;8.734;2023-05-18T06:57:49;98690.38;;;7.71;100.00
11448;BME280;43755;49.736;8.734;2023-05-18T06:59:52;98695.38;;;7.83;100.00
11448;BME280;43755;49.736;8.734;2023-05-18T07:01:53;98689.91;;;7.92;100.00
11448;BME280;43755;49.736;8.734;2023-05-18T07:03:55;98688.88;;;7.99;100.00
11448;BME280;43755;49.736;8.734;2023-05-18T07:05:56;98687.94;;;8.02;100.00
11448;BME280;43755;49.736;8.734;2023-05-18T07:07:57;98697.44;;;8.09;100.00
11448;BME280;43755;49.736;8.734;2023-05-18T07:10:00;98684.84;;;8.23;100.00
11448;BME280;43755;49.736;8.734;2023-05-18T07:12:03;98690.88;;;8.28;100.00
11448;BME280;43755;49.736;8.734;2023-05-18T07:14:04;98694.38;;;8.30;100.00
11448;BME280;43755;49.736;8.734;2023-05-18T07:16:06;98687.97;;;8.40;100.00
11448;BME280;43755;49.736;8.734;2023-05-18T07:18:07;98691.53;;;8.39;100.00
11448;BME280;43755;49.736;8.734;2023-05-18T07:20:09;98692.22;;;8.47;100.00
11448;BME280;43755;49.736;8.734;2023-05-18T07:22:11;98691.25;;;8.51;100.00
11448;BME280;43755;49.736;8.734;2023-05-18T07:24:12;98682.16;;;8.63;100.00
11448;BME280;43755;49.736;8.734;2023-05-18T07:26:15;98688.19;;;8.68;100.00
11448;BME280;43755;49.736;8.734;2023-05-18T07:28:16;98688.44;;;8.59;100.00
11448;BME280;43755;49.736;8.734;2023-05-18T07:30:17;98690.00;;;8.66;100.00
11448;BME280;43755;49.736;8.734;2023-05-18T07:32:19;98684.16;;;8.89;100.00
11448;BME280;43755;49.736;8.734;2023-05-18T07:34:20;98691.72;;;9.02;100.00
11448;BME280;43755;49.736;8.734;2023-05-18T07:36:22;98687.63;;;8.91;100.00
11448;BME280;43755;49.736;8.734;2023-05-18T07:38:24;98683.31;;;8.88;100.00
11448;BME280;43755;49.736;8.734;2023-05-18T07:40:26;98686.22;;;9.12;100.00
11448;BME280;43755;49.736;8.734;2023-05-18T07:42:29;98690.81;;;9.03;100.00
11448;BME280;43755;49.736;8.734;2023-05-18T07:44:30;98678.13;;;9.18;100.00
11448;BME280;43755;49.736;8.734;2023-05-18T07:46:31;98685.56;;;9.36;100.00
11448;BME280;43755;49.736;8.734;2023-05-18T07:48:33;98681.16;;;9.36;100.00
11448;BME280;43755;49.736;8.734;2023-05-18T07:50:35;98684.88;;;9.29;100.00
11448;BME280;43755;49.736;8.734;2023-05-18T07:52:36;98690.72;;;9.40;100.00
11448;BME280;43755;49.736;8.734;2023-05-18T07:54:37;98686.88;;;9.52;99.59
11448;BME280;43755;49.736;8.734;2023-05-18T07:56:39;98672.59;;;9.59;98.25
11448;BME280;43755;49.736;8.734;2023-05-18T07:58:42;98684.03;;;9.60;98.57
11448;BME280;43755;49.736;8.734;2023-05-18T08:00:44;98683.72;;;9.70;97.54
11448;BME280;43755;49.736;8.734;2023-05-18T08:02:46;98676.53;;;9.75;98.14
11448;BME280;43755;49.736;8.734;2023-05-18T08:04:48;98677.78;;;9.93;98.16
11448;BME280;43755;49.736;8.734;2023-05-18T08:06:50;98685.03;;;9.85;94.84
11448;BME280;43755;49.736;8.734;2023-05-18T08:08:54;98683.63;;;10.03;98.19
11448;BME280;43755;49.736;8.734;2023-05-18T08:10:56;98685.22;;;10.08;92.17
11448;BME280;43755;49.736;8.734;2023-05-18T08:12:57;98685.22;;;10.08;89.14
11448;BME280;43755;49.736;8.734;2023-05-18T08:15:00;98676.31;;;10.12;94.24
11448;BME280;43755;49.736;8.734;2023-05-18T08:17:02;98689.25;;;10.23;94.94
11448;BME280;43755;49.736;8.734;2023-05-18T08:19:03;98684.88;;;10.22;90.10
11448;BME280;43755;49.736;8.734;2023-05-18T08:21:05;98685.13;;;10.42;94.32
11448;BME280;43755;49.736;8.734;2023-05-18T08:23:08;98681.34;;;10.49;86.48
11448;BME280;43755;49.736;8.734;2023-05-18T08:25:10;98676.16;;;10.46;87.85
11448;BME280;43755;49.736;8.734;2023-05-18T08:27:11;98675.94;;;10.54;91.84
11448;BME280;43755;49.736;8.734;2023-05-18T08:29:13;98683.03;;;10.52;85.68
11448;BME280;43755;49.736;8.734;2023-05-18T08:31:16;98678.38;;;10.60;87.82
11448;BME280;43755;49.736;8.734;2023-05-18T08:33:17;98662.75;;;10.79;95.27
11448;BME280;43755;49.736;8.734;2023-05-18T08:35:18;98672.38;;;10.81;84.68
11448;BME280;43755;49.736;8.734;2023-05-18T08:37:20;98661.19;;;10.99;80.33
11448;BME280;43755;49.736;8.734;2023-05-18T08:39:28;98655.78;;;11.27;87.27
11448;BME280;43755;49.736;8.734;2023-05-18T08:41:35;98657.19;;;11.37;72.63
11448;BME280;43755;49.736;8.734;2023-05-18T08:43:41;98655.66;;;11.55;76.92
11448;BME280;43755;49.736;8.734;2023-05-18T08:45:47;98658.38;;;11.54;66.31
11448;BME280;43755;49.736;8.734;2023-05-18T08:47:53;98650.91;;;11.65;69.12
11448;BME280;43755;49.736;8.734;2023-05-18T08:49:57;98648.72;;;11.77;67.49
11448;BME280;43755;49.736;8.734;2023-05-18T08:52:02;98652.50;;;11.94;68.19
11448;BME280;43755;49.736;8.734;2023-05-18T08:54:04;98652.03;;;12.06;69.84
11448;BME280;43755;49.736;8.734;2023-05-18T08:56:07;98649.38;;;12.06;65.98
11448;BME280;43755;49.736;8.734;2023-05-18T08:58:11;98653.91;;;12.02;63.03
11448;BME280;43755;49.736;8.734;2023-05-18T09:00:14;98650.41;;;12.02;63.72
11448;BME280;43755;49.736;8.734;2023-05-18T09:02:16;98644.88;;;12.08;67.88
11448;BME280;43755;49.736;8.734;2023-05-18T09:04:20;98649.91;;;12.37;64.77
11448;BME280;43755;49.736;8.734;2023-05-18T09:06:22;98649.97;;;12.57;66.05
11448;BME280;43755;49.736;8.734;2023-05-18T09:08:25;98655.44;;;12.54;61.95
11448;BME280;43755;49.736;8.734;2023-05-18T09:10:27;98649.72;;;12.63;66.18
11448;BME280;43755;49.736;8.734;2023-05-18T09:12:29;98657.13;;;12.77;59.00
11448;BME280;43755;49.736;8.734;2023-05-18T09:14:32;98641.94;;;12.81;59.71
11448;BME280;43755;49.736;8.734;2023-05-18T09:16:33;98641.16;;;12.99;58.85
11448;BME280;43755;49.736;8.734;2023-05-18T09:18:35;98640.19;;;13.01;58.40
11448;BME280;43755;49.736;8.734;2023-05-18T09:20:38;98645.72;;;13.17;57.05
11448;BME280;43755;49.736;8.734;2023-05-18T09:22:39;98644.06;;;13.15;60.10
11448;BME280;43755;49.736;8.734;2023-05-18T09:24:41;98640.38;;;13.19;57.51
11448;BME280;43755;49.736;8.734;2023-05-18T09:26:42;98636.31;;;13.08;60.43
11448;BME280;43755;49.736;8.734;2023-05-18T09:28:44;98645.97;;;13.31;59.22
11448;BME280;43755;49.736;8.734;2023-05-18T09:30:46;98638.97;;;13.30;55.64
11448;BME280;43755;49.736;8.734;2023-05-18T09:32:48;98636.19;;;13.11;58.01
11448;BME280;43755;49.736;8.734;2023-05-18T09:34:50;98640.53;;;13.14;60.79
11448;BME280;43755;49.736;8.734;2023-05-18T09:36:53;98641.63;;;13.30;55.44
11448;BME280;43755;49.736;8.734;2023-05-18T09:38:56;98633.69;;;13.49;56.42
11448;BME280;43755;49.736;8.734;2023-05-18T09:40:58;98637.63;;;13.79;57.70
11448;BME280;43755;49.736;8.734;2023-05-18T09:43:05;98641.75;;;13.86;52.51
11448;BME280;43755;49.736;8.734;2023-05-18T09:45:15;98636.41;;;13.86;53.14
11448;BME280;43755;49.736;8.734;2023-05-18T09:47:16;98622.44;;;14.02;54.61
11448;BME280;43755;49.736;8.734;2023-05-18T09:49:20;98627.94;;;14.16;52.02
11448;BME280;43755;49.736;8.734;2023-05-18T09:51:22;98625.06;;;14.39;51.29
11448;BME280;43755;49.736;8.734;2023-05-18T09:53:25;98621.47;;;14.59;51.10
11448;BME280;43755;49.736;8.734;2023-05-18T09:55:27;98617.72;;;14.97;53.28
11448;BME280;43755;49.736;8.734;2023-05-18T09:57:28;98618.59;;;15.32;50.71
11448;BME280;43755;49.736;8.734;2023-05-18T09:59:30;98615.53;;;15.40;52.13
11448;BME280;43755;49.736;8.734;2023-05-18T10:01:33;98614.28;;;15.47;47.73
11448;BME280;43755;49.736;8.734;2023-05-18T10:03:36;98621.91;;;15.37;47.08
11448;BME280;43755;49.736;8.734;2023-05-18T10:05:40;98608.75;;;15.50;47.54
11448;BME280;43755;49.736;8.734;2023-05-18T10:07:42;98617.22;;;15.75;46.15
11448;BME280;43755;49.736;8.734;2023-05-18T10:09:45;98613.28;;;15.82;46.30
11448;BME280;43755;49.736;8.734;2023-05-18T10:11:48;98617.81;;;16.13;46.29
11448;BME280;43755;49.736;8.734;2023-05-18T10:13:52;98617.94;;;15.94;46.22
11448;BME280;43755;49.736;8.734;2023-05-18T10:15:55;98613.25;;;15.67;45.85
11448;BME280;43755;49.736;8.734;2023-05-18T10:17:58;98611.41;;;15.67;46.62
11448;BME280;43755;49.736;8.734;2023-05-18T10:20:00;98622.09;;;15.67;48.92
11448;BME280;43755;49.736;8.734;2023-05-18T10:22:02;98618.91;;;14.92;49.38
11448;BME280;43755;49.736;8.734;2023-05-18T10:24:05;98619.31;;;14.48;50.96
11448;BME280;43755;49.736;8.734;2023-05-18T10:26:10;98609.81;;;14.24;47.62
11448;BME280;43755;49.736;8.734;2023-05-18T10:28:17;98613.00;;;14.68;50.64
11448;BME280;43755;49.736;8.734;2023-05-18T10:30:20;98611.22;;;15.03;50.52
11448;BME280;43755;49.736;8.734;2023-05-18T10:32:24;98608.28;;;15.92;47.10
11448;BME280;43755;49.736;8.734;2023-05-18T10:34:26;98607.47;;;16.23;46.38
11448;BME280;43755;49.736;8.734;2023-05-18T10:36:28;98609.63;;;16.63;46.21
11448;BME280;43755;49.736;8.734;2023-05-18T10:38:32;98604.00;;;16.68;46.18
11448;BME280;43755;49.736;8.734;2023-05-18T10:40:35;98602.56;;;17.08;43.72
11448;BME280;43755;49.736;8.734;2023-05-18T10:42:39;98607.31;;;17.47;42.89
11448;BME280;43755;49.736;8.734;2023-05-18T10:44:42;98599.25;;;17.77;39.48
11448;BME280;43755;49.736;8.734;2023-05-18T10:46:44;98602.06;;;18.16;42.63
11448;BME280;43755;49.736;8.734;2023-05-18T10:48:46;98595.63;;;18.33;41.04